Enter the Airport ICAO Code

Search by Airport or City

Current Weather

SCDA | Diego Aracena International Airport

Iquique, Chile

Last Update 22 Minutes Ago

Temperature of 16 ēC

No Wind Data

Temperature

16 ēC

Dew Point Temperature

11 ēC

Relative Humidity

72.33 %

Wind Direction

No Data

Wind Velocity

No Data

Gusts

None

Visibility

No Significant Reductions

Sea Level Pressure

1017 hPa (Hectopascals)

Layers of Clouds

None

METAR SCDA 191300Z METAR 17007KT CAVOK 16/11 Q1017

Weather Forecast

SCDA | Diego Aracena International Airport

Iquique, Chile

Forecast valid for the next 23 Hours

From now on it is expected:

Completely Cloudy Sky

Light Winds from South

In 3 to 5 hours it is expected the begining of:

Moderate Winds from West

In 9 to 11 hours it is expected the begining of:

Light to Moderate Winds from SouthWest

In 13 to 15 hours it is expected the begining of:

Light Winds from South

Maximum Temperature

18 ēC in 5 Hours

Minimum Temperature

16 ēC in 17 Hours

TAF SCDA 191030Z 1912/2012 17004KT 9999 OVC020 TX18/1918Z TN16/2006Z BECMG 1916/1918 25011KT BECMG 1922/2000 22008KT OVC030 BECMG 2002/2004 19004KT